createdAt,value
2017-11-20T00:00:50.960Z,15.50
2017-11-20T00:01:50.944Z,17.30
2017-11-20T00:02:50.924Z,15.80
2017-11-20T00:03:50.916Z,14.40
2017-11-20T00:04:50.893Z,15.20
2017-11-20T00:05:50.884Z,14.50
2017-11-20T00:06:50.856Z,15.70
2017-11-20T00:07:50.845Z,18.20
2017-11-20T00:08:50.828Z,16.70
2017-11-20T00:09:50.812Z,17.50
2017-11-20T00:10:50.794Z,16.50
2017-11-20T00:11:50.778Z,15.80
2017-11-20T00:12:50.755Z,16.50
2017-11-20T00:13:50.734Z,15.20
2017-11-20T00:14:50.718Z,18.80
2017-11-20T00:15:50.707Z,15.30
2017-11-20T00:16:50.685Z,16.70
2017-11-20T00:17:50.674Z,16.60
2017-11-20T00:18:50.657Z,13.80
2017-11-20T00:19:50.637Z,18.30
2017-11-20T00:20:50.617Z,15.50
2017-11-20T00:21:50.599Z,14.90
2017-11-20T00:22:50.585Z,18.20
2017-11-20T00:23:50.566Z,16.70
2017-11-20T00:24:50.557Z,15.10
2017-11-20T00:25:50.536Z,17.10
2017-11-20T00:26:50.515Z,16.80
2017-11-20T00:27:50.501Z,15.00
2017-11-20T00:28:50.484Z,12.70
2017-11-20T00:29:50.462Z,17.60
2017-11-20T00:30:50.448Z,15.80
2017-11-20T00:31:50.434Z,14.40
2017-11-20T00:32:50.415Z,15.60
2017-11-20T00:33:50.392Z,15.10
2017-11-20T00:34:50.387Z,15.20
2017-11-20T00:35:50.363Z,14.20
2017-11-20T00:36:50.348Z,16.10
2017-11-20T00:37:50.334Z,16.10
2017-11-20T00:38:50.314Z,17.70
2017-11-20T00:39:50.288Z,18.60
2017-11-20T00:40:50.274Z,14.50
2017-11-20T00:41:50.255Z,14.60
2017-11-20T00:42:50.242Z,13.80
2017-11-20T00:43:50.229Z,16.70
2017-11-20T00:44:50.210Z,272.20
2017-11-20T00:45:50.203Z,21.40
2017-11-20T00:46:50.185Z,18.50
2017-11-20T00:47:50.150Z,18.60
2017-11-20T00:48:50.135Z,18.90
2017-11-20T00:49:50.120Z,14.90
2017-11-20T00:50:50.098Z,16.20
2017-11-20T00:51:50.081Z,17.50
2017-11-20T00:52:50.064Z,17.10
2017-11-20T00:53:50.055Z,14.70
2017-11-20T00:54:50.031Z,16.80
2017-11-20T00:55:50.013Z,17.50
2017-11-20T00:56:50.000Z,16.50
2017-11-20T00:57:49.978Z,17.50
2017-11-20T00:58:49.963Z,13.90
2017-11-20T00:59:49.950Z,13.60
2017-11-20T01:00:49.926Z,14.30
2017-11-20T01:01:49.921Z,17.60
2017-11-20T01:02:49.892Z,15.60
2017-11-20T01:03:49.876Z,14.70
2017-11-20T01:04:49.862Z,15.60
2017-11-20T01:05:49.848Z,15.40
2017-11-20T01:06:49.823Z,16.60
2017-11-20T01:07:49.812Z,16.30
2017-11-20T01:08:49.797Z,17.80
2017-11-20T01:09:49.775Z,16.10
2017-11-20T01:10:49.758Z,17.20
2017-11-20T01:11:49.752Z,16.00
2017-11-20T01:12:49.723Z,14.40
2017-11-20T01:13:49.712Z,18.90
2017-11-20T01:14:49.693Z,16.00
2017-11-20T01:15:49.673Z,14.50
2017-11-20T01:16:49.667Z,16.20
2017-11-20T01:17:49.643Z,20.60
2017-11-20T01:18:49.636Z,16.70
2017-11-20T01:19:49.604Z,14.30
2017-11-20T01:20:49.586Z,14.80
2017-11-20T01:21:49.565Z,17.80
2017-11-20T01:22:49.552Z,15.50
2017-11-20T01:23:49.536Z,16.20
2017-11-20T01:24:49.516Z,17.00
2017-11-20T01:25:49.497Z,16.10
2017-11-20T01:26:49.480Z,18.50
2017-11-20T01:27:49.477Z,19.00
2017-11-20T01:28:49.455Z,18.30
2017-11-20T01:29:49.435Z,19.00
2017-11-20T01:30:49.418Z,18.90
2017-11-20T01:31:49.393Z,15.80
2017-11-20T01:32:49.378Z,15.60
2017-11-20T01:33:49.366Z,15.80
2017-11-20T01:34:49.341Z,17.00
2017-11-20T01:35:49.326Z,14.80
2017-11-20T01:36:49.308Z,15.70
2017-11-20T01:37:49.294Z,15.90
2017-11-20T01:38:49.279Z,16.90
2017-11-20T01:39:49.261Z,16.30
2017-11-20T01:40:49.238Z,15.60
2017-11-20T01:41:49.227Z,13.60
2017-11-20T01:42:49.214Z,14.80
2017-11-20T01:43:49.188Z,15.80
2017-11-20T01:44:49.176Z,19.10
2017-11-20T01:45:49.154Z,15.50
2017-11-20T01:46:49.143Z,18.80
2017-11-20T01:47:49.147Z,16.30
2017-11-20T01:48:49.102Z,17.00
2017-11-20T01:49:49.099Z,15.10
2017-11-20T01:50:49.064Z,16.80
2017-11-20T01:51:49.064Z,17.40
2017-11-20T01:52:49.044Z,15.90
2017-11-20T01:53:49.022Z,13.50
2017-11-20T01:54:49.005Z,13.20
2017-11-20T01:55:48.989Z,15.90
2017-11-20T01:56:48.961Z,14.90
2017-11-20T01:57:48.943Z,13.50
2017-11-20T01:58:48.935Z,12.60
2017-11-20T01:59:48.908Z,15.30
2017-11-20T02:00:48.900Z,15.70
2017-11-20T02:01:48.877Z,14.70
2017-11-20T02:02:48.861Z,14.80
2017-11-20T02:03:48.839Z,13.40
2017-11-20T02:04:48.825Z,15.50
2017-11-20T02:05:48.810Z,18.40
2017-11-20T02:06:48.794Z,26.40
2017-11-20T02:07:48.782Z,27.30
2017-11-20T02:08:48.751Z,29.60
2017-11-20T02:09:48.734Z,20.80
2017-11-20T02:10:48.723Z,18.50
2017-11-20T02:11:48.711Z,19.90
2017-11-20T02:12:48.695Z,16.50
2017-11-20T02:13:48.669Z,17.90
2017-11-20T02:14:48.653Z,16.10
2017-11-20T02:15:48.626Z,17.30
2017-11-20T02:16:48.611Z,20.10
2017-11-20T02:17:48.591Z,16.90
2017-11-20T02:18:48.588Z,19.30
2017-11-20T02:19:48.558Z,17.10
2017-11-20T02:20:48.538Z,18.00
2017-11-20T02:21:48.525Z,16.30
2017-11-20T02:22:48.503Z,17.00
2017-11-20T02:23:48.494Z,16.40
2017-11-20T02:24:48.480Z,17.70
2017-11-20T02:25:48.457Z,17.20
2017-11-20T02:26:48.438Z,15.90
2017-11-20T02:27:48.421Z,16.50
2017-11-20T02:28:48.408Z,15.50
2017-11-20T02:29:48.402Z,16.00
2017-11-20T02:30:48.362Z,16.00
2017-11-20T02:31:48.346Z,15.80
2017-11-20T02:32:48.328Z,18.50
2017-11-20T02:33:48.317Z,15.70
2017-11-20T02:34:48.295Z,19.80
2017-11-20T02:35:48.282Z,15.30
2017-11-20T02:36:48.272Z,16.90
2017-11-20T02:37:48.242Z,14.70
2017-11-20T02:38:48.222Z,14.80
2017-11-20T02:39:48.206Z,16.70
2017-11-20T02:40:48.205Z,17.50
2017-11-20T02:41:48.169Z,20.40
2017-11-20T02:42:48.151Z,19.40
2017-11-20T02:43:48.136Z,15.70
2017-11-20T02:44:48.117Z,17.40
2017-11-20T02:45:48.098Z,15.00
2017-11-20T02:46:48.081Z,24.00
2017-11-20T02:47:48.076Z,23.00
2017-11-20T02:48:48.057Z,27.20
2017-11-20T02:49:48.030Z,24.50
2017-11-20T02:50:48.022Z,19.50
2017-11-20T02:51:48.000Z,21.90
2017-11-20T02:52:47.985Z,51.40
2017-11-20T02:53:47.961Z,86.10
2017-11-20T02:54:47.943Z,74.50
2017-11-20T02:55:47.924Z,43.30
2017-11-20T02:56:47.915Z,60.50
2017-11-20T02:57:47.898Z,26.90
2017-11-20T02:58:47.871Z,22.80
2017-11-20T02:59:47.858Z,29.00
2017-11-20T03:00:47.861Z,23.80
2017-11-20T03:01:47.824Z,23.40
2017-11-20T03:02:47.803Z,27.40
2017-11-20T03:03:47.784Z,20.50
2017-11-20T03:04:47.770Z,20.10
2017-11-20T03:05:47.754Z,24.10
2017-11-20T03:06:47.740Z,27.60
2017-11-20T03:07:47.719Z,20.70
2017-11-20T03:08:47.698Z,23.10
2017-11-20T03:09:47.683Z,24.10
2017-11-20T03:10:47.671Z,34.80
2017-11-20T03:11:47.651Z,21.50
2017-11-20T03:12:47.636Z,18.90
2017-11-20T03:13:47.618Z,26.00
2017-11-20T03:14:47.592Z,28.30
2017-11-20T03:15:47.588Z,35.40
2017-11-20T03:16:47.560Z,22.70
2017-11-20T03:17:47.540Z,26.00
2017-11-20T03:18:47.523Z,22.50
2017-11-20T03:19:47.505Z,19.10
2017-11-20T03:20:47.490Z,17.40
2017-11-20T03:21:47.471Z,28.70
2017-11-20T03:22:47.462Z,55.00
2017-11-20T03:23:47.441Z,51.40
2017-11-20T03:24:47.420Z,89.80
2017-11-20T03:25:47.414Z,106.60
2017-11-20T03:26:47.389Z,115.90
2017-11-20T03:27:47.379Z,83.70
2017-11-20T03:28:47.349Z,107.50
2017-11-20T03:29:47.337Z,39.00
2017-11-20T03:30:47.317Z,31.30
2017-11-20T03:31:47.296Z,49.90
2017-11-20T03:32:47.284Z,57.90
2017-11-20T03:33:47.259Z,95.10
2017-11-20T03:34:47.253Z,269.20
2017-11-20T03:35:47.226Z,241.60
2017-11-20T03:36:47.212Z,169.20
2017-11-20T03:37:47.200Z,57.00
2017-11-20T03:38:47.187Z,114.20
2017-11-20T03:39:47.161Z,265.40
2017-11-20T03:40:47.140Z,412.10
2017-11-20T03:41:47.127Z,107.80
2017-11-20T03:42:47.105Z,186.20
2017-11-20T03:43:47.087Z,64.70
2017-11-20T03:44:47.068Z,33.80
2017-11-20T03:45:47.052Z,47.30
2017-11-20T03:46:47.045Z,40.80
2017-11-20T03:47:47.036Z,35.40
2017-11-20T03:48:47.007Z,66.70
2017-11-20T03:49:46.982Z,41.60
2017-11-20T03:50:46.966Z,24.20
2017-11-20T03:51:46.948Z,58.10
2017-11-20T03:52:46.932Z,35.30
2017-11-20T03:53:46.916Z,43.50
2017-11-20T03:54:46.902Z,38.60
2017-11-20T03:55:46.885Z,77.00
2017-11-20T03:56:46.862Z,62.20
2017-11-20T03:57:46.843Z,34.70
2017-11-20T03:58:46.845Z,34.70
2017-11-20T03:59:46.807Z,70.80
2017-11-20T04:00:46.790Z,45.20
2017-11-20T04:01:46.778Z,46.60
2017-11-20T04:02:46.755Z,43.80
2017-11-20T04:03:46.744Z,38.50
2017-11-20T04:04:46.722Z,43.20
2017-11-20T04:05:46.705Z,31.70
2017-11-20T04:06:46.691Z,56.30
2017-11-20T04:07:46.674Z,62.30
2017-11-20T04:08:46.653Z,93.20
2017-11-20T04:09:46.644Z,240.80
2017-11-20T04:10:46.624Z,160.30
2017-11-20T04:11:46.599Z,331.00
2017-11-20T04:12:46.587Z,104.00
2017-11-20T04:13:46.565Z,137.40
2017-11-20T04:14:46.545Z,185.20
2017-11-20T04:15:46.534Z,78.60
2017-11-20T04:16:46.522Z,49.70
2017-11-20T04:17:46.511Z,106.60
2017-11-20T04:18:46.485Z,50.50
2017-11-20T04:19:46.463Z,55.80
2017-11-20T04:20:46.448Z,87.10
2017-11-20T04:21:46.429Z,80.20
2017-11-20T04:22:46.414Z,77.00
2017-11-20T04:23:46.390Z,77.60
2017-11-20T04:24:46.380Z,98.30
2017-11-20T04:25:46.357Z,105.80
2017-11-20T04:26:46.356Z,80.90
2017-11-20T04:27:46.321Z,73.40
2017-11-20T04:28:46.311Z,91.70
2017-11-20T04:29:46.286Z,46.80
2017-11-20T04:30:46.273Z,54.40
2017-11-20T04:31:46.251Z,45.10
2017-11-20T04:32:46.234Z,64.70
2017-11-20T04:33:46.235Z,137.50
2017-11-20T04:34:46.199Z,86.20
2017-11-20T04:35:46.182Z,42.30
2017-11-20T04:36:46.162Z,43.60
2017-11-20T04:37:46.153Z,36.30
2017-11-20T04:38:46.136Z,45.60
2017-11-20T04:39:46.111Z,55.00
2017-11-20T04:40:46.094Z,47.50
2017-11-20T04:41:46.084Z,55.30
2017-11-20T04:42:46.061Z,56.40
2017-11-20T04:43:46.043Z,135.30
2017-11-20T04:44:46.024Z,116.50
2017-11-20T04:45:46.008Z,59.30
2017-11-20T04:46:46.004Z,61.60
2017-11-20T04:47:45.971Z,68.80
2017-11-20T04:48:45.960Z,85.30
2017-11-20T04:49:45.946Z,76.50
2017-11-20T04:50:45.922Z,189.00
2017-11-20T04:51:45.905Z,152.30
2017-11-20T04:52:45.900Z,73.70
2017-11-20T04:53:45.877Z,253.90
2017-11-20T04:54:45.851Z,125.90
2017-11-20T04:55:45.839Z,135.90
2017-11-20T04:56:45.825Z,124.30
2017-11-20T04:57:45.800Z,82.10
2017-11-20T04:58:45.782Z,76.40
2017-11-20T04:59:45.764Z,63.70
2017-11-20T05:00:45.761Z,56.10
2017-11-20T05:01:45.731Z,38.90
2017-11-20T05:02:45.724Z,33.40
2017-11-20T05:03:45.703Z,33.20
2017-11-20T05:04:45.686Z,29.20
2017-11-20T05:05:45.668Z,33.60
2017-11-20T05:06:45.651Z,30.50
2017-11-20T05:07:45.638Z,43.10
2017-11-20T05:08:45.612Z,31.60
2017-11-20T05:09:45.599Z,27.40
2017-11-20T05:10:45.577Z,30.20
2017-11-20T05:11:45.558Z,34.90
2017-11-20T05:12:45.550Z,29.70
2017-11-20T05:13:45.523Z,29.50
2017-11-20T05:14:45.505Z,27.10
2017-11-20T05:15:45.489Z,25.90
2017-11-20T05:16:45.473Z,28.00
2017-11-20T05:17:45.453Z,26.30
2017-11-20T05:18:45.442Z,28.20
2017-11-20T05:19:45.420Z,26.20
2017-11-20T05:20:45.404Z,25.90
2017-11-20T05:21:45.386Z,23.50
2017-11-20T05:22:45.373Z,25.70
2017-11-20T05:23:45.358Z,26.00
2017-11-20T05:24:45.335Z,23.30
2017-11-20T05:25:45.323Z,23.10
2017-11-20T05:26:45.315Z,25.30
2017-11-20T05:27:45.288Z,24.60
2017-11-20T05:28:45.267Z,21.70
2017-11-20T05:29:45.256Z,20.20
2017-11-20T05:30:45.234Z,21.10
2017-11-20T05:31:45.224Z,20.30
2017-11-20T05:32:45.210Z,23.30
2017-11-20T05:33:45.185Z,22.60
2017-11-20T05:34:45.162Z,20.50
2017-11-20T05:35:45.146Z,19.10
2017-11-20T05:36:45.130Z,21.10
2017-11-20T05:37:45.111Z,18.20
2017-11-20T05:38:45.093Z,17.10
2017-11-20T05:39:45.080Z,20.00
2017-11-20T05:40:45.068Z,18.80
2017-11-20T05:41:45.041Z,21.00
2017-11-20T05:42:45.034Z,19.10
2017-11-20T05:43:45.010Z,21.10
2017-11-20T05:44:45.001Z,18.40
2017-11-20T05:45:44.982Z,21.70
2017-11-20T05:46:44.958Z,19.60
2017-11-20T05:47:44.953Z,21.60
2017-11-20T05:48:44.922Z,19.30
2017-11-20T05:49:44.913Z,23.30
2017-11-20T05:50:44.895Z,23.10
2017-11-20T05:51:44.885Z,22.70
2017-11-20T05:52:44.856Z,25.90
2017-11-20T05:53:44.837Z,28.10
2017-11-20T05:54:44.825Z,43.60
2017-11-20T05:55:44.810Z,34.10
2017-11-20T05:56:44.791Z,24.30
2017-11-20T05:57:44.774Z,30.70
2017-11-20T05:58:44.756Z,32.10
2017-11-20T05:59:44.758Z,38.10
2017-11-20T06:00:44.715Z,28.80
2017-11-20T06:01:44.707Z,51.20
2017-11-20T06:02:44.681Z,50.20
2017-11-20T06:03:44.677Z,44.50
2017-11-20T06:04:44.658Z,54.90
2017-11-20T06:05:44.629Z,34.40
2017-11-20T06:06:44.621Z,31.90
2017-11-20T06:07:44.608Z,34.70
2017-11-20T06:08:44.594Z,35.30
2017-11-20T06:09:44.581Z,56.30
2017-11-20T06:10:44.579Z,34.20
2017-11-20T06:11:44.539Z,29.30
2017-11-20T06:12:44.528Z,28.20
2017-11-20T06:13:44.496Z,29.60
2017-11-20T06:14:44.481Z,29.10
2017-11-20T06:15:44.470Z,39.20
2017-11-20T06:16:44.449Z,30.30
2017-11-20T06:17:44.424Z,25.70
2017-11-20T06:18:44.409Z,33.90
2017-11-20T06:19:44.398Z,29.90
2017-11-20T06:20:44.384Z,25.90
2017-11-20T06:21:44.356Z,27.20
2017-11-20T06:22:44.347Z,25.00
2017-11-20T06:23:44.336Z,23.20
2017-11-20T06:24:44.312Z,25.70
2017-11-20T06:25:44.288Z,26.90
2017-11-20T06:26:44.297Z,25.60
2017-11-20T06:27:44.253Z,26.00
2017-11-20T06:28:44.236Z,25.50
2017-11-20T06:29:44.217Z,27.00
2017-11-20T06:30:44.205Z,22.20
2017-11-20T06:31:44.183Z,23.60
2017-11-20T06:32:44.166Z,25.60
2017-11-20T06:33:44.166Z,28.70
2017-11-20T06:34:44.137Z,25.00
2017-11-20T06:35:44.113Z,23.50
2017-11-20T06:36:44.097Z,25.30
2017-11-20T06:37:44.080Z,22.60
2017-11-20T06:38:44.060Z,26.20
2017-11-20T06:39:44.055Z,24.70
2017-11-20T06:40:44.026Z,26.10
2017-11-20T06:41:44.016Z,22.90
2017-11-20T06:42:43.998Z,27.90
2017-11-20T06:43:43.976Z,31.30
2017-11-20T06:44:43.959Z,25.20
2017-11-20T06:45:43.944Z,24.50
2017-11-20T06:46:43.933Z,24.80
2017-11-20T06:47:43.905Z,27.50
2017-11-20T06:48:43.889Z,26.00
2017-11-20T06:49:43.876Z,29.80
2017-11-20T06:50:43.853Z,28.10
2017-11-20T06:51:43.840Z,29.60
2017-11-20T06:52:43.829Z,27.60
2017-11-20T06:53:43.809Z,21.10
2017-11-20T06:54:43.789Z,24.20
2017-11-20T06:55:43.769Z,23.80
2017-11-20T06:56:43.749Z,25.40
2017-11-20T06:57:43.743Z,26.30
2017-11-20T06:58:43.713Z,27.20
2017-11-20T06:59:43.709Z,27.50
2017-11-20T07:00:43.689Z,29.10
2017-11-20T07:01:43.667Z,31.50
2017-11-20T07:02:43.652Z,27.00
2017-11-20T07:03:43.631Z,25.20
2017-11-20T07:04:43.608Z,28.10
2017-11-20T07:05:43.601Z,24.50
2017-11-20T07:06:43.576Z,24.40
2017-11-20T07:07:43.560Z,23.50
2017-11-20T07:08:43.545Z,25.50
2017-11-20T07:09:43.524Z,22.60
2017-11-20T07:10:43.509Z,22.30
2017-11-20T07:11:43.491Z,24.40
2017-11-20T07:12:43.480Z,22.90
2017-11-20T07:13:43.461Z,96.90
2017-11-20T07:14:43.440Z,24.40
2017-11-20T07:15:43.437Z,22.70
2017-11-20T07:16:43.411Z,22.20
2017-11-20T07:17:43.399Z,23.30
2017-11-20T07:18:43.374Z,24.90
2017-11-20T07:19:43.360Z,19.60
2017-11-20T07:20:43.344Z,21.60
2017-11-20T07:21:43.318Z,20.60
2017-11-20T07:22:43.315Z,21.90
2017-11-20T07:23:43.293Z,23.70
2017-11-20T07:24:43.275Z,21.80
2017-11-20T07:25:43.250Z,23.80
2017-11-20T07:26:43.240Z,21.70
2017-11-20T07:27:43.224Z,21.70
2017-11-20T07:28:43.207Z,22.00
2017-11-20T07:29:43.181Z,21.80
2017-11-20T07:30:43.170Z,21.70
2017-11-20T07:31:43.157Z,20.80
2017-11-20T07:32:43.138Z,22.90
2017-11-20T07:33:43.112Z,22.60
2017-11-20T07:34:43.095Z,22.20
2017-11-20T07:35:43.078Z,20.30
2017-11-20T07:36:43.061Z,23.90
2017-11-20T07:37:43.044Z,23.80
2017-11-20T07:38:43.027Z,23.30
2017-11-20T07:39:43.016Z,21.30
2017-11-20T07:40:42.998Z,21.90
2017-11-20T07:41:42.990Z,24.20
2017-11-20T07:42:42.970Z,23.00
2017-11-20T07:43:42.943Z,21.80
2017-11-20T07:44:42.931Z,25.80
2017-11-20T07:45:42.918Z,25.30
2017-11-20T07:46:42.891Z,23.20
2017-11-20T07:47:42.877Z,22.70
2017-11-20T07:48:42.866Z,23.90
2017-11-20T07:49:42.849Z,23.40
2017-11-20T07:50:42.824Z,22.80
2017-11-20T07:51:42.814Z,26.10
2017-11-20T07:52:42.792Z,26.00
2017-11-20T07:53:42.775Z,28.20
2017-11-20T07:54:42.756Z,25.50
2017-11-20T07:55:42.752Z,25.70
2017-11-20T07:56:42.737Z,28.60
2017-11-20T07:57:42.706Z,21.30
2017-11-20T07:58:42.688Z,25.90
2017-11-20T07:59:42.677Z,18.10
2017-11-20T08:00:42.672Z,18.70
2017-11-20T08:01:42.672Z,21.20
2017-11-20T08:02:42.623Z,21.50
2017-11-20T08:03:42.615Z,17.80
2017-11-20T08:04:42.587Z,20.40
2017-11-20T08:05:42.577Z,17.20
2017-11-20T08:06:42.555Z,18.90
2017-11-20T08:07:42.536Z,19.60
2017-11-20T08:08:42.525Z,18.20
2017-11-20T08:09:42.507Z,16.60
2017-11-20T08:10:42.485Z,18.90
2017-11-20T08:11:42.476Z,17.70
2017-11-20T08:12:42.464Z,16.30
2017-11-20T08:13:42.437Z,17.80
2017-11-20T08:14:42.419Z,16.20
2017-11-20T08:15:42.401Z,16.10
2017-11-20T08:16:42.385Z,16.40
2017-11-20T08:17:42.386Z,16.00
2017-11-20T08:18:42.354Z,15.60
2017-11-20T08:19:42.346Z,15.10
2017-11-20T08:20:42.320Z,17.00
2017-11-20T08:21:42.310Z,14.50
2017-11-20T08:22:42.296Z,15.40
2017-11-20T08:23:42.278Z,12.80
2017-11-20T08:24:42.260Z,14.30
2017-11-20T08:25:42.238Z,14.40
2017-11-20T08:26:42.221Z,15.00
2017-11-20T08:27:42.209Z,15.30
2017-11-20T08:28:42.191Z,15.40
2017-11-20T08:29:42.174Z,17.50
2017-11-20T08:30:42.159Z,17.60
2017-11-20T08:31:42.143Z,15.50
2017-11-20T08:32:42.122Z,16.80
2017-11-20T08:33:42.104Z,16.40
2017-11-20T08:34:42.095Z,17.70
2017-11-20T08:35:42.091Z,15.10
2017-11-20T08:36:42.055Z,14.40
2017-11-20T08:37:42.044Z,14.50
2017-11-20T08:38:42.029Z,16.70
2017-11-20T08:39:42.016Z,18.80
2017-11-20T08:40:41.991Z,15.50
2017-11-20T08:41:41.974Z,15.70
2017-11-20T08:42:41.963Z,15.70
2017-11-20T08:43:41.942Z,19.70
2017-11-20T08:44:41.927Z,13.50
2017-11-20T08:45:41.909Z,14.80
2017-11-20T08:46:41.904Z,14.90
2017-11-20T08:47:41.877Z,13.40
2017-11-20T08:48:41.866Z,14.70
2017-11-20T08:49:41.844Z,16.60
2017-11-20T08:50:41.829Z,16.40
2017-11-20T08:51:41.820Z,14.30
2017-11-20T08:52:41.805Z,14.40
2017-11-20T08:53:41.781Z,15.80
2017-11-20T08:54:41.765Z,15.00
2017-11-20T08:55:41.758Z,13.40
2017-11-20T08:56:41.734Z,14.20
2017-11-20T08:57:41.716Z,15.20
2017-11-20T08:58:41.699Z,16.30
2017-11-20T08:59:41.682Z,16.40
2017-11-20T09:00:41.666Z,14.20
2017-11-20T09:01:41.658Z,14.50
2017-11-20T09:02:41.634Z,13.70
2017-11-20T09:03:41.616Z,12.90
2017-11-20T09:04:41.607Z,14.30
2017-11-20T09:05:41.585Z,14.10
2017-11-20T09:06:41.573Z,14.80
2017-11-20T09:07:41.558Z,15.40
2017-11-20T09:08:41.536Z,15.30
2017-11-20T09:09:41.521Z,13.00
2017-11-20T09:10:41.504Z,15.40
2017-11-20T09:11:41.497Z,16.80
2017-11-20T09:12:41.471Z,13.60
2017-11-20T09:13:41.461Z,12.80
2017-11-20T09:14:41.444Z,14.10
2017-11-20T09:15:41.423Z,14.80
2017-11-20T09:16:41.406Z,16.00
2017-11-20T09:17:41.389Z,12.70
2017-11-20T09:18:41.384Z,13.90
2017-11-20T09:19:41.358Z,13.00
2017-11-20T09:20:41.341Z,14.90
2017-11-20T09:21:41.330Z,15.10
2017-11-20T09:22:41.309Z,16.20
2017-11-20T09:23:41.292Z,13.40
2017-11-20T09:24:41.278Z,14.60
2017-11-20T09:25:41.263Z,14.60
2017-11-20T09:26:41.262Z,14.00
2017-11-20T09:27:41.241Z,12.70
2017-11-20T09:28:41.220Z,13.40
2017-11-20T09:29:41.195Z,12.10
2017-11-20T09:30:41.180Z,15.60
2017-11-20T09:31:41.164Z,13.20
2017-11-20T09:32:41.148Z,14.60
2017-11-20T09:33:41.133Z,14.50
2017-11-20T09:34:41.116Z,11.70
2017-11-20T09:35:41.115Z,14.60
2017-11-20T09:36:41.085Z,13.90
2017-11-20T09:37:41.068Z,17.50
2017-11-20T09:38:41.058Z,16.70
2017-11-20T09:39:41.043Z,14.00
2017-11-20T09:40:41.030Z,14.40
2017-11-20T09:41:41.019Z,16.20
2017-11-20T09:42:40.989Z,14.70
2017-11-20T09:43:40.986Z,14.00
2017-11-20T09:44:40.958Z,15.80
2017-11-20T09:45:40.950Z,14.00
2017-11-20T09:46:40.927Z,13.20
2017-11-20T09:47:40.908Z,13.80
2017-11-20T09:48:40.901Z,13.60
2017-11-20T09:49:40.889Z,16.90
2017-11-20T09:50:40.872Z,17.20
2017-11-20T09:51:40.845Z,13.30
2017-11-20T09:52:40.831Z,16.70
2017-11-20T09:53:40.827Z,14.60
2017-11-20T09:54:40.797Z,17.10
2017-11-20T09:55:40.782Z,15.50
2017-11-20T09:56:40.769Z,13.70
2017-11-20T09:57:40.758Z,17.70
2017-11-20T09:58:40.740Z,14.90
2017-11-20T09:59:40.726Z,14.60
2017-11-20T10:00:40.704Z,15.70
2017-11-20T10:01:40.695Z,13.00
2017-11-20T10:02:40.679Z,13.40
2017-11-20T10:03:40.656Z,14.90
2017-11-20T10:04:40.642Z,14.50
2017-11-20T10:05:40.642Z,13.30
2017-11-20T10:06:40.623Z,13.40
2017-11-20T10:07:40.596Z,13.80
2017-11-20T10:08:40.583Z,13.70
2017-11-20T10:09:40.562Z,18.80
2017-11-20T10:10:40.561Z,13.10
2017-11-20T10:11:40.546Z,13.70
2017-11-20T10:12:40.515Z,13.50
2017-11-20T10:13:40.501Z,13.40
2017-11-20T10:14:40.485Z,13.30
2017-11-20T10:15:40.481Z,13.90
2017-11-20T10:16:40.468Z,12.80
2017-11-20T10:17:40.443Z,13.20
2017-11-20T10:18:40.425Z,12.40
2017-11-20T10:19:40.417Z,13.70
2017-11-20T10:20:40.412Z,12.90
2017-11-20T10:21:40.378Z,12.60
2017-11-20T10:22:40.361Z,13.90
2017-11-20T10:23:40.346Z,16.20
2017-11-20T10:24:40.346Z,13.60
2017-11-20T10:25:40.316Z,13.80
2017-11-20T10:26:40.302Z,14.00
2017-11-20T10:27:40.285Z,13.20
2017-11-20T10:28:40.275Z,15.10
2017-11-20T10:29:40.255Z,12.70
2017-11-20T10:30:40.242Z,14.90
2017-11-20T10:31:40.230Z,13.20
2017-11-20T10:32:40.212Z,13.00
2017-11-20T10:33:40.202Z,13.20
2017-11-20T10:34:40.189Z,12.80
2017-11-20T10:35:40.171Z,14.60
2017-11-20T10:36:40.148Z,12.50
2017-11-20T10:37:40.143Z,12.00
2017-11-20T10:38:40.120Z,13.10
2017-11-20T10:39:40.103Z,12.90
2017-11-20T10:40:40.092Z,11.90
2017-11-20T10:41:40.072Z,12.10
2017-11-20T10:42:40.069Z,15.50
2017-11-20T10:43:40.044Z,13.80
2017-11-20T10:44:40.034Z,12.20
2017-11-20T10:45:40.019Z,14.70
2017-11-20T10:46:39.997Z,13.60
2017-11-20T10:47:39.986Z,14.10
2017-11-20T10:48:39.969Z,13.00
2017-11-20T10:49:39.961Z,14.20
2017-11-20T10:50:39.939Z,12.70
2017-11-20T10:51:39.928Z,12.10
2017-11-20T10:52:39.909Z,13.10
2017-11-20T10:53:39.893Z,11.90
2017-11-20T10:54:39.879Z,15.10
2017-11-20T10:55:39.868Z,12.30
2017-11-20T10:56:39.857Z,12.70
2017-11-20T10:57:39.835Z,12.70
2017-11-20T10:58:39.831Z,13.50
2017-11-20T10:59:39.808Z,11.90
2017-11-20T11:00:39.801Z,14.30
2017-11-20T11:01:39.780Z,13.30
2017-11-20T11:02:39.771Z,12.30
2017-11-20T11:03:39.752Z,12.60
2017-11-20T11:04:39.730Z,12.50
2017-11-20T11:05:39.722Z,16.20
2017-11-20T11:06:39.699Z,13.10
2017-11-20T11:07:39.692Z,16.90
2017-11-20T11:08:39.668Z,12.40
2017-11-20T11:09:39.651Z,14.60
2017-11-20T11:10:39.637Z,13.60
2017-11-20T11:11:39.635Z,13.90
2017-11-20T11:12:39.608Z,13.20
2017-11-20T11:13:39.596Z,12.80
2017-11-20T11:14:39.586Z,12.00
2017-11-20T11:15:39.567Z,14.00
2017-11-20T11:16:39.555Z,11.60
2017-11-20T11:17:39.538Z,13.00
2017-11-20T11:18:39.531Z,13.20
2017-11-20T11:19:39.502Z,11.30
2017-11-20T11:20:39.486Z,12.40
2017-11-20T11:21:39.482Z,14.30
2017-11-20T11:22:39.457Z,12.10
2017-11-20T11:23:39.441Z,12.70
2017-11-20T11:24:39.436Z,12.10
2017-11-20T11:25:39.416Z,12.30
2017-11-20T11:26:39.397Z,12.90
2017-11-20T11:27:39.382Z,13.80
2017-11-20T11:28:39.368Z,12.70
2017-11-20T11:29:39.352Z,12.70
2017-11-20T11:30:39.337Z,12.00
2017-11-20T11:31:39.326Z,13.60
2017-11-20T11:32:39.314Z,12.90
2017-11-20T11:33:39.293Z,12.10
2017-11-20T11:34:39.282Z,14.30
2017-11-20T11:35:39.262Z,12.80
2017-11-20T11:36:39.248Z,12.60
2017-11-20T11:37:39.231Z,12.40
2017-11-20T11:38:39.225Z,12.20
2017-11-20T11:39:39.208Z,12.70
2017-11-20T11:40:39.194Z,11.80
2017-11-20T11:41:39.173Z,13.50
2017-11-20T11:42:39.157Z,12.70
2017-11-20T11:43:39.144Z,12.10
2017-11-20T11:44:39.134Z,11.70
2017-11-20T11:45:39.121Z,11.70
2017-11-20T11:46:39.109Z,12.70
2017-11-20T11:47:39.089Z,12.30
2017-11-20T11:48:39.069Z,14.70
2017-11-20T11:49:39.059Z,13.20
2017-11-20T11:50:39.045Z,13.20
2017-11-20T11:51:39.024Z,11.20
2017-11-20T11:52:39.030Z,13.80
2017-11-20T11:53:38.997Z,12.70
2017-11-20T11:54:38.999Z,11.30
2017-11-20T11:55:38.967Z,11.90
2017-11-20T11:56:38.953Z,10.80
2017-11-20T11:57:38.940Z,12.10
2017-11-20T11:58:38.937Z,12.20
2017-11-20T11:59:38.907Z,13.20
2017-11-20T12:00:38.903Z,12.90
2017-11-20T12:01:38.877Z,12.20
2017-11-20T12:02:38.871Z,13.40
2017-11-20T12:03:38.855Z,12.40
2017-11-20T12:04:38.834Z,13.30
2017-11-20T12:05:38.820Z,12.10
2017-11-20T12:06:38.818Z,12.10
2017-11-20T12:07:38.793Z,12.90
2017-11-20T12:08:38.776Z,12.40
2017-11-20T12:09:38.768Z,13.00
2017-11-20T12:10:38.749Z,12.40
2017-11-20T12:11:38.738Z,10.80
2017-11-20T12:12:38.720Z,14.00
2017-11-20T12:13:38.709Z,11.80
2017-11-20T12:14:38.697Z,11.20
2017-11-20T12:15:38.687Z,12.20
2017-11-20T12:16:38.669Z,13.00
2017-11-20T12:17:38.657Z,14.00
2017-11-20T12:18:38.631Z,13.20
2017-11-20T12:19:38.618Z,12.30
2017-11-20T12:20:38.611Z,12.70
2017-11-20T12:21:38.587Z,13.30
2017-11-20T12:22:38.577Z,14.40
2017-11-20T12:23:38.564Z,11.30
2017-11-20T12:24:38.556Z,14.20
2017-11-20T12:25:38.541Z,11.40
2017-11-20T12:26:38.519Z,11.40
2017-11-20T12:27:38.503Z,12.60
2017-11-20T12:28:38.498Z,10.40
2017-11-20T12:29:38.476Z,10.30
2017-11-20T12:30:38.475Z,13.10
2017-11-20T12:31:38.455Z,11.70
2017-11-20T12:32:38.440Z,11.90
2017-11-20T12:33:38.418Z,10.40
2017-11-20T12:34:38.403Z,10.60
2017-11-20T12:35:38.389Z,11.30
2017-11-20T12:36:38.383Z,11.90
2017-11-20T12:37:38.360Z,11.70
2017-11-20T12:38:38.356Z,11.00
2017-11-20T12:39:38.333Z,10.90
2017-11-20T12:40:38.328Z,9.70
2017-11-20T12:41:38.303Z,10.20
2017-11-20T12:42:38.290Z,10.60
2017-11-20T12:43:38.275Z,13.00
2017-11-20T12:44:38.261Z,9.60
2017-11-20T12:45:38.262Z,11.20
2017-11-20T12:46:38.234Z,11.20
2017-11-20T12:47:38.225Z,11.90
2017-11-20T12:48:38.210Z,13.10
2017-11-20T12:49:38.192Z,11.00
2017-11-20T12:50:38.188Z,10.80
2017-11-20T12:51:38.173Z,10.40